Time;durP1;ratioP1;P1;durP2;ratioP2;P2;SDS_P1;SDS_P2;PMS_P1;PMS_P2;Temp;Humidity;BMP_temperature;BMP_pressure;BME280_temperature;BME280_humidity;BME280_pressure;Samples;Min_cycle;Max_cycle;Signal;HPM_P1;HPM_P2
2023/01/16 00:01:40;;;;;;;4.88;1.67;;;;;;;;;;10421961;28;20045;-76
2023/01/16 00:06:42;;;;;;;2.22;1.60;;;;;;;;;;10408745;28;20045;-74
2023/01/16 00:11:43;;;;;;;2.63;1.70;;;;;;;;;;10396069;28;20388;-74
2023/01/16 00:16:43;;;;;;;2.47;1.40;;;;;;;;;;10384220;28;20068;-74
2023/01/16 00:21:47;;;;;;;4.10;2.10;;;;;;;;;;10400444;28;20124;-74
2023/01/16 00:26:51;;;;;;;3.70;2.00;;;;;;;;;;10391496;28;20922;-76
2023/01/16 00:31:51;;;;;;;2.20;1.65;;;;;;;;;;10387964;28;20045;-75
2023/01/16 00:36:52;;;;;;;2.38;1.67;;;;;;;;;;10425158;28;20489;-76
2023/01/16 00:41:52;;;;;;;4.20;1.83;;;;;;;;;;10404409;28;20052;-75
2023/01/16 00:46:53;;;;;;;3.33;1.63;;;;;;;;;;10400818;28;20217;-75
2023/01/16 00:51:53;;;;;;;2.03;1.50;;;;;;;;;;10398791;28;20057;-74
2023/01/16 00:56:54;;;;;;;3.58;1.73;;;;;;;;;;10399151;28;20061;-77
2023/01/16 01:01:54;;;;;;;2.45;1.80;;;;;;;;;;10391949;28;20548;-75
2023/01/16 01:06:55;;;;;;;3.80;1.88;;;;;;;;;;10422871;28;20045;-76
2023/01/16 01:11:58;;;;;;;3.38;2.13;;;;;;;;;;10396662;28;20056;-76
2023/01/16 01:17:00;;;;;;;2.75;1.52;;;;;;;;;;10413983;28;20060;-76
2023/01/16 01:22:02;;;;;;;2.83;1.50;;;;;;;;;;10413294;28;20049;-77
2023/01/16 01:27:02;;;;;;;4.85;2.47;;;;;;;;;;10399219;28;20136;-74
2023/01/16 01:32:05;;;;;;;1.83;1.73;;;;;;;;;;10419655;28;20432;-74
2023/01/16 01:37:06;;;;;;;4.53;1.60;;;;;;;;;;10410701;28;20065;-75
2023/01/16 01:47:36;;;;;;;3.28;1.70;;;;;;;;;;10408540;28;20056;-74
2023/01/16 01:52:37;;;;;;;2.38;1.52;;;;;;;;;;10431583;28;20560;-75
2023/01/16 01:57:39;;;;;;;3.78;1.63;;;;;;;;;;10416885;28;20067;-76
2023/01/16 02:02:43;;;;;;;1.98;1.58;;;;;;;;;;10412995;28;20492;-75
2023/01/16 02:07:43;;;;;;;;;;;;;;;;;;10405873;28;20057;-77
2023/01/16 02:12:43;;;;;;;1.52;1.10;;;;;;;;;;10416721;28;20373;-75
2023/01/16 02:23:10;;;;;;;5.18;1.75;;;;;;;;;;10386093;28;20150;-73
2023/01/16 02:28:26;;;;;;;3.40;1.20;;;;;;;;;;10393626;28;20049;-75
2023/01/16 02:33:39;;;;;;;1.27;1.13;;;;;;;;;;10395323;28;20111;-76
2023/01/16 02:38:48;;;;;;;2.75;1.50;;;;;;;;;;10418820;28;20775;-74
2023/01/16 02:43:55;;;;;;;2.90;1.30;;;;;;;;;;10401650;28;20079;-75
2023/01/16 02:49:09;;;;;;;4.20;1.35;;;;;;;;;;10412009;28;20048;-76
2023/01/16 02:54:18;;;;;;;3.22;1.27;;;;;;;;;;10379497;28;20136;-75
2023/01/16 02:59:18;;;;;;;3.20;1.40;;;;;;;;;;10403633;28;20049;-74
2023/01/16 03:04:42;;;;;;;3.28;1.20;;;;;;;;;;10415760;28;20049;-73
2023/01/16 03:09:52;;;;;;;4.15;1.25;;;;;;;;;;10409816;28;20049;-76
2023/01/16 03:15:13;;;;;;;2.95;1.20;;;;;;;;;;10387517;28;20057;-73
2023/01/16 03:20:19;;;;;;;1.25;1.15;;;;;;;;;;10397020;28;20057;-74
2023/01/16 03:25:33;;;;;;;1.67;0.90;;;;;;;;;;10393321;28;20453;-74
2023/01/16 03:30:36;;;;;;;1.97;1.00;;;;;;;;;;10406483;28;20044;-74
2023/01/16 03:35:52;;;;;;;1.35;1.10;;;;;;;;;;10409167;28;20089;-74
2023/01/16 03:40:54;;;;;;;2.65;1.15;;;;;;;;;;10411142;28;20041;-76
2023/01/16 03:46:00;;;;;;;2.22;1.23;;;;;;;;;;10395094;28;20057;-75
2023/01/16 03:51:03;;;;;;;4.72;1.30;;;;;;;;;;10403364;28;20042;-74
2023/01/16 03:56:15;;;;;;;1.23;1.10;;;;;;;;;;10408138;28;20549;-75
2023/01/16 04:01:22;;;;;;;3.13;1.02;;;;;;;;;;10405319;28;20068;-76
2023/01/16 04:06:26;;;;;;;2.60;1.40;;;;;;;;;;10402711;28;20552;-74
2023/01/16 04:11:27;;;;;;;2.20;1.10;;;;;;;;;;10404193;28;20048;-75
2023/01/16 04:16:29;;;;;;;3.40;0.95;;;;;;;;;;10386184;28;20057;-76
2023/01/16 04:21:31;;;;;;;1.45;1.10;;;;;;;;;;10394989;28;20041;-74
2023/01/16 04:26:31;;;;;;;3.25;1.10;;;;;;;;;;10420175;28;20407;-75
2023/01/16 04:31:32;;;;;;;2.47;0.98;;;;;;;;;;10405591;28;20041;-75
2023/01/16 04:36:32;;;;;;;2.58;1.10;;;;;;;;;;10374722;28;20071;-75
2023/01/16 04:41:36;;;;;;;1.23;1.13;;;;;;;;;;10412844;28;20036;-73
2023/01/16 04:46:38;;;;;;;;;;;;;;;;;;10413657;28;20037;-74
2023/01/16 04:51:39;;;;;;;2.42;1.48;;;;;;;;;;10393701;28;19916;-74
2023/01/16 04:56:39;;;;;;;2.08;1.25;;;;;;;;;;10416446;28;20100;-74
2023/01/16 05:01:40;;;;;;;2.75;1.40;;;;;;;;;;10391803;28;20132;-73
2023/01/16 05:06:41;;;;;;;3.13;1.20;;;;;;;;;;10403623;28;20125;-77
2023/01/16 05:11:41;;;;;;;3.17;1.00;;;;;;;;;;10413873;28;20061;-75
2023/01/16 05:16:42;;;;;;;2.78;2.00;;;;;;;;;;10412523;28;20061;-74
2023/01/16 05:21:42;;;;;;;1.70;1.10;;;;;;;;;;10379806;28;20127;-74
2023/01/16 05:26:42;;;;;;;4.83;1.37;;;;;;;;;;10412769;28;20050;-74
2023/01/16 05:31:43;;;;;;;2.33;1.20;;;;;;;;;;10422311;28;20350;-73
2023/01/16 05:36:43;;;;;;;3.08;1.08;;;;;;;;;;10416774;28;20531;-74
2023/01/16 05:41:45;;;;;;;4.32;1.38;;;;;;;;;;10416884;28;20076;-73
2023/01/16 05:46:46;;;;;;;2.03;1.10;;;;;;;;;;10406350;28;20471;-75
2023/01/16 05:51:46;;;;;;;2.30;1.52;;;;;;;;;;10421261;28;20052;-74
2023/01/16 05:56:47;;;;;;;3.67;1.38;;;;;;;;;;10420552;28;20171;-76
2023/01/16 06:01:47;;;;;;;1.20;1.10;;;;;;;;;;10398079;28;20525;-74
2023/01/16 06:06:48;;;;;;;4.97;1.50;;;;;;;;;;10409470;28;20045;-74
2023/01/16 06:11:48;;;;;;;3.83;1.60;;;;;;;;;;10418959;28;20454;-74
2023/01/16 06:16:49;;;;;;;1.77;1.50;;;;;;;;;;10383190;28;20061;-74
2023/01/16 06:21:49;;;;;;;2.70;1.60;;;;;;;;;;10410073;28;20481;-76
2023/01/16 06:26:49;;;;;;;2.38;1.40;;;;;;;;;;10422963;28;20045;-73
2023/01/16 06:31:50;;;;;;;2.67;1.52;;;;;;;;;;10415931;28;20057;-76
2023/01/16 06:36:52;;;;;;;2.50;1.27;;;;;;;;;;10448830;28;20141;-73
2023/01/16 06:41:52;;;;;;;2.45;1.48;;;;;;;;;;10440830;28;20037;-80
2023/01/16 06:46:52;;;;;;;3.50;1.90;;;;;;;;;;10391790;28;20076;-76
2023/01/16 06:51:53;;;;;;;4.25;2.28;;;;;;;;;;10419315;28;20034;-74
2023/01/16 06:56:53;;;;;;;4.15;1.98;;;;;;;;;;10412310;28;20478;-73
2023/01/16 07:01:54;;;;;;;3.60;1.90;;;;;;;;;;10416872;28;20617;-79
2023/01/16 07:06:54;;;;;;;4.03;1.67;;;;;;;;;;10399801;28;20815;-76
2023/01/16 07:11:55;;;;;;;3.03;1.40;;;;;;;;;;10415144;28;20136;-77
2023/01/16 07:27:35;;;;;;;3.42;1.38;;;;;;;;;;10399100;28;20111;-77
2023/01/16 07:32:35;;;;;;;3.35;1.70;;;;;;;;;;10393298;28;20159;-77
2023/01/16 07:37:38;;;;;;;3.30;1.20;;;;;;;;;;10388721;28;20046;-74
2023/01/16 07:42:39;;;;;;;4.93;1.77;;;;;;;;;;10418752;28;20115;-74
2023/01/16 07:47:39;;;;;;;1.60;1.10;;;;;;;;;;10414675;28;20176;-78
2023/01/16 07:52:41;;;;;;;1.63;1.35;;;;;;;;;;10388985;28;20156;-76
2023/01/16 07:57:42;;;;;;;1.48;1.13;;;;;;;;;;10390507;28;20045;-77
2023/01/16 08:02:44;;;;;;;1.23;1.10;;;;;;;;;;10393337;28;20042;-76
2023/01/16 08:07:46;;;;;;;2.83;1.20;;;;;;;;;;10411675;28;20065;-74
2023/01/16 08:12:48;;;;;;;1.87;1.50;;;;;;;;;;10415292;28;20049;-75
2023/01/16 08:17:49;;;;;;;3.13;1.30;;;;;;;;;;10408019;28;20040;-75
2023/01/16 08:22:50;;;;;;;4.00;1.20;;;;;;;;;;10401671;28;20064;-76
2023/01/16 08:27:51;;;;;;;3.75;1.33;;;;;;;;;;10397976;28;20562;-74
2023/01/16 08:32:57;;;;;;;1.30;1.10;;;;;;;;;;10413340;28;20098;-76
2023/01/16 08:37:57;;;;;;;2.70;1.27;;;;;;;;;;10375403;28;20132;-76
2023/01/16 08:53:39;;;;;;;3.33;1.00;;;;;;;;;;10403126;28;20088;-76
2023/01/16 08:58:40;;;;;;;2.17;1.05;;;;;;;;;;10413946;28;20124;-75
2023/01/16 09:03:40;;;;;;;1.75;0.88;;;;;;;;;;10457597;28;20088;-76
2023/01/16 09:08:43;;;;;;;2.58;0.90;;;;;;;;;;10463166;28;20122;-72
2023/01/16 09:13:50;;;;;;;1.90;0.90;;;;;;;;;;10445434;28;20057;-74
2023/01/16 09:18:51;;;;;;;1.30;0.90;;;;;;;;;;10397428;28;20071;-76
2023/01/16 09:23:52;;;;;;;1.35;0.82;;;;;;;;;;10419796;28;20091;-75
2023/01/16 09:28:54;;;;;;;2.08;0.93;;;;;;;;;;10406004;28;20497;-77
2023/01/16 09:33:54;;;;;;;1.13;0.88;;;;;;;;;;10428142;28;20053;-75
2023/01/16 09:38:55;;;;;;;2.17;1.13;;;;;;;;;;10407488;28;20052;-75
2023/01/16 09:43:55;;;;;;;4.35;1.70;;;;;;;;;;10394237;28;20120;-75
2023/01/16 09:48:56;;;;;;;1.00;0.90;;;;;;;;;;10442090;28;20107;-76
2023/01/16 09:59:33;;;;;;;2.10;1.08;;;;;;;;;;10433602;28;20763;-75
2023/01/16 10:04:36;;;;;;;1.42;0.90;;;;;;;;;;10418113;28;20049;-77
2023/01/16 10:09:42;;;;;;;2.70;0.90;;;;;;;;;;10408680;28;20521;-76
2023/01/16 10:14:51;;;;;;;1.27;0.70;;;;;;;;;;10427060;28;20501;-74
2023/01/16 10:20:11;;;;;;;1.60;0.70;;;;;;;;;;10427506;28;20450;-76
2023/01/16 10:30:42;;;;;;;1.40;0.90;;;;;;;;;;10422055;28;20194;-73
2023/01/16 10:35:44;;;;;;;0.88;0.80;;;;;;;;;;10421031;28;20084;-79
2023/01/16 10:40:46;;;;;;;1.73;0.75;;;;;;;;;;10425386;28;20045;-74
2023/01/16 10:51:24;;;;;;;1.73;0.90;;;;;;;;;;10301129;28;20063;-75
2023/01/16 10:56:24;;;;;;;1.48;1.00;;;;;;;;;;10382424;28;20047;-75
2023/01/16 11:01:25;;;;;;;2.38;1.02;;;;;;;;;;10400981;28;20041;-75
2023/01/16 11:06:29;;;;;;;1.25;0.70;;;;;;;;;;10408564;28;20061;-75
2023/01/16 11:22:37;;;;;;;1.10;0.85;;;;;;;;;;10407508;28;20041;-75
2023/01/16 11:27:38;;;;;;;1.80;0.90;;;;;;;;;;10389809;28;20062;-76
2023/01/16 11:32:47;;;;;;;1.92;1.10;;;;;;;;;;10393128;28;20049;-74
2023/01/16 11:37:49;;;;;;;1.80;0.90;;;;;;;;;;10415785;28;20057;-79
2023/01/16 11:48:25;;;;;;;1.20;0.70;;;;;;;;;;10396272;28;20064;-74
2023/01/16 11:53:31;;;;;;;1.42;1.08;;;;;;;;;;10405142;28;20465;-74
2023/01/16 11:58:42;;;;;;;0.80;0.70;;;;;;;;;;10407941;28;20735;-75
2023/01/16 12:03:54;;;;;;;2.53;0.90;;;;;;;;;;10403861;28;20079;-76
2023/01/16 12:09:02;;;;;;;1.00;0.90;;;;;;;;;;10414581;28;20138;-77
2023/01/16 12:14:18;;;;;;;2.03;1.00;;;;;;;;;;10406340;28;20045;-76
2023/01/16 12:19:33;;;;;;;1.35;1.00;;;;;;;;;;10402183;28;20044;-74
2023/01/16 12:24:52;;;;;;;1.75;1.08;;;;;;;;;;10391776;28;20116;-74
2023/01/16 12:30:03;;;;;;;2.10;1.10;;;;;;;;;;10418180;28;20045;-73
2023/01/16 12:35:15;;;;;;;2.20;1.10;;;;;;;;;;10398197;28;20057;-74
2023/01/16 12:40:19;;;;;;;2.17;1.00;;;;;;;;;;10411430;28;20049;-75
2023/01/16 12:45:20;;;;;;;3.05;1.38;;;;;;;;;;10396956;28;20061;-75
2023/01/16 12:50:26;;;;;;;2.13;0.82;;;;;;;;;;10418037;28;20047;-76
2023/01/16 12:55:42;;;;;;;3.00;1.20;;;;;;;;;;10409824;28;20382;-75
2023/01/16 13:00:44;;;;;;;2.65;1.08;;;;;;;;;;10421089;28;20079;-75
2023/01/16 13:05:46;;;;;;;1.30;0.70;;;;;;;;;;10409734;28;20092;-76
2023/01/16 13:16:26;;;;;;;2.95;1.45;;;;;;;;;;10413231;28;20052;-75
2023/01/16 13:21:28;;;;;;;2.28;1.38;;;;;;;;;;10393309;28;20053;-74
2023/01/16 13:26:30;;;;;;;2.47;1.23;;;;;;;;;;10408187;28;20508;-73
2023/01/16 13:31:33;;;;;;;4.53;1.13;;;;;;;;;;10409933;28;20076;-76
2023/01/16 13:36:39;;;;;;;2.70;1.58;;;;;;;;;;10404274;28;20114;-75
2023/01/16 13:41:45;;;;;;;1.73;1.25;;;;;;;;;;10407277;28;20038;-75
2023/01/16 13:46:46;;;;;;;5.47;1.50;;;;;;;;;;10374761;28;20114;-76
2023/01/16 13:51:50;;;;;;;2.45;1.50;;;;;;;;;;10407457;28;20049;-74
2023/01/16 13:57:00;;;;;;;3.38;1.70;;;;;;;;;;10396738;28;20486;-75
2023/01/16 14:02:01;;;;;;;2.38;1.52;;;;;;;;;;10411047;28;20378;-76
2023/01/16 14:12:23;;;;;;;6.97;2.88;;;;;;;;;;10398061;28;20131;-78
2023/01/16 14:17:30;;;;;;;6.28;1.70;;;;;;;;;;10405946;28;20037;-75
2023/01/16 14:27:40;;;;;;;2.63;1.17;;;;;;;;;;10411906;28;20045;-77
2023/01/16 14:32:45;;;;;;;1.30;1.08;;;;;;;;;;10391675;28;20080;-77
2023/01/16 14:37:54;;;;;;;3.45;1.40;;;;;;;;;;10379080;28;20041;-76
2023/01/16 14:59:15;;;;;;;1.35;1.02;;;;;;;;;;10426524;28;20037;-76
2023/01/16 15:04:17;;;;;;;1.40;0.80;;;;;;;;;;10391872;28;20124;-75
2023/01/16 15:09:19;;;;;;;1.97;1.00;;;;;;;;;;10413717;28;20049;-76
2023/01/16 15:14:29;;;;;;;1.52;0.80;;;;;;;;;;10405563;28;20101;-76
2023/01/16 15:24:55;;;;;;;2.33;0.80;;;;;;;;;;10409039;28;20125;-78
2023/01/16 15:30:03;;;;;;;0.88;0.82;;;;;;;;;;10420436;28;20049;-75
2023/01/16 15:35:15;;;;;;;1.88;1.08;;;;;;;;;;10407238;28;20034;-75
2023/01/16 15:40:26;;;;;;;1.35;0.90;;;;;;;;;;10410956;28;20117;-76
2023/01/16 15:50:48;;;;;;;1.00;0.85;;;;;;;;;;10411946;28;20055;-76
2023/01/16 15:55:52;;;;;;;1.63;1.00;;;;;;;;;;10402879;28;20049;-74
2023/01/16 16:00:58;;;;;;;1.13;1.00;;;;;;;;;;10409807;28;20048;-75
2023/01/16 16:06:02;;;;;;;1.30;0.90;;;;;;;;;;10412543;28;20525;-77
2023/01/16 16:27:11;;;;;;;1.90;1.23;;;;;;;;;;10382265;28;20068;-75
2023/01/16 16:32:14;;;;;;;2.05;1.05;;;;;;;;;;10393442;28;20064;-74
2023/01/16 16:37:14;;;;;;;2.47;1.20;;;;;;;;;;10404977;28;20409;-76
2023/01/16 16:42:27;;;;;;;2.45;1.20;;;;;;;;;;10410497;28;20042;-74
2023/01/16 16:47:29;;;;;;;2.42;1.05;;;;;;;;;;10392486;28;20053;-75
2023/01/16 16:52:31;;;;;;;2.53;1.45;;;;;;;;;;10420679;28;20049;-75
2023/01/16 16:57:40;;;;;;;1.90;1.10;;;;;;;;;;10416805;28;20045;-74
2023/01/16 17:02:44;;;;;;;1.83;1.20;;;;;;;;;;10387475;28;20053;-75
2023/01/16 17:07:47;;;;;;;2.08;1.40;;;;;;;;;;10402289;28;20057;-79
2023/01/16 17:12:48;;;;;;;1.63;1.00;;;;;;;;;;10419580;28;20455;-77
2023/01/16 17:17:56;;;;;;;2.83;2.00;;;;;;;;;;10422750;28;20056;-75
2023/01/16 17:22:56;;;;;;;2.88;1.50;;;;;;;;;;10417228;28;20045;-76
2023/01/16 17:27:57;;;;;;;1.42;1.00;;;;;;;;;;10395490;28;20057;-76
2023/01/16 17:33:09;;;;;;;1.98;1.55;;;;;;;;;;10421909;28;20045;-77
2023/01/16 17:38:11;;;;;;;2.00;1.50;;;;;;;;;;10385745;28;20048;-78
2023/01/16 17:48:37;;;;;;;2.97;1.40;;;;;;;;;;10418791;28;20049;-79
2023/01/16 17:53:41;;;;;;;1.88;1.20;;;;;;;;;;10392890;28;20044;-76
2023/01/16 18:04:07;;;;;;;2.35;1.30;;;;;;;;;;10398311;28;20038;-77
2023/01/16 18:09:10;;;;;;;2.80;1.30;;;;;;;;;;10400357;28;20538;-76
2023/01/16 18:19:31;;;;;;;1.10;1.00;;;;;;;;;;10422826;28;20051;-77
2023/01/16 18:24:33;;;;;;;1.20;1.10;;;;;;;;;;10396053;28;20045;-77
2023/01/16 18:29:34;;;;;;;2.03;1.33;;;;;;;;;;10408516;28;20041;-75
2023/01/16 18:34:34;;;;;;;1.23;1.10;;;;;;;;;;10407536;28;20449;-76
2023/01/16 19:06:12;;;;;;;1.90;1.30;;;;;;;;;;10397871;28;20079;-79
2023/01/16 19:11:13;;;;;;;1.67;1.13;;;;;;;;;;10415801;28;20044;-75
2023/01/16 19:21:34;;;;;;;1.70;1.30;;;;;;;;;;10411679;28;20045;-78
2023/01/16 19:26:35;;;;;;;1.88;1.23;;;;;;;;;;10389128;28;20073;-75
2023/01/16 19:31:36;;;;;;;2.17;1.35;;;;;;;;;;10419283;28;20045;-78
2023/01/16 19:36:39;;;;;;;3.05;1.27;;;;;;;;;;10405216;28;20067;-79
2023/01/16 19:47:01;;;;;;;1.90;1.38;;;;;;;;;;10420418;28;20076;-83
2023/01/16 19:52:01;;;;;;;1.33;1.23;;;;;;;;;;10413349;28;20148;-83
2023/01/16 19:57:07;;;;;;;1.95;1.45;;;;;;;;;;10410567;28;20113;-82
2023/01/16 20:02:11;;;;;;;2.55;1.35;;;;;;;;;;10402664;28;20053;-85
2023/01/16 20:07:12;;;;;;;1.42;1.33;;;;;;;;;;10428521;28;20648;-82
2023/01/16 20:12:23;;;;;;;2.38;1.20;;;;;;;;;;10410358;28;20038;-79
2023/01/16 20:17:25;;;;;;;1.52;1.00;;;;;;;;;;10401144;28;20052;-80
2023/01/16 20:22:26;;;;;;;1.98;1.50;;;;;;;;;;10429263;28;20583;-77
2023/01/16 20:27:28;;;;;;;2.03;1.40;;;;;;;;;;10425687;28;20118;-79
2023/01/16 20:32:28;;;;;;;2.17;1.00;;;;;;;;;;10438520;28;20052;-76
2023/01/16 20:37:30;;;;;;;1.85;0.93;;;;;;;;;;10437861;28;20045;-78
2023/01/16 20:47:49;;;;;;;2.20;1.30;;;;;;;;;;10440784;28;20084;-76
2023/01/16 20:52:50;;;;;;;1.20;1.10;;;;;;;;;;10459091;28;20045;-77
2023/01/16 20:57:51;;;;;;;1.23;1.00;;;;;;;;;;10433657;28;20848;-76
2023/01/16 21:02:51;;;;;;;1.33;1.10;;;;;;;;;;10437058;28;20046;-77
2023/01/16 21:07:51;;;;;;;1.23;1.00;;;;;;;;;;10436362;28;20052;-76
2023/01/16 21:23:30;;;;;;;0.60;0.60;;;;;;;;;;10460237;28;20096;-78
2023/01/16 21:28:30;;;;;;;1.30;1.20;;;;;;;;;;10452776;28;20079;-76
2023/01/16 21:33:30;;;;;;;1.02;0.90;;;;;;;;;;10433694;28;20047;-76
2023/01/16 21:38:33;;;;;;;0.80;0.60;;;;;;;;;;10442029;28;20064;-74
2023/01/16 21:48:52;;;;;;;0.77;0.70;;;;;;;;;;10434924;28;20195;-77
2023/01/16 21:53:53;;;;;;;1.00;0.90;;;;;;;;;;10426395;28;20052;-76
2023/01/16 21:58:56;;;;;;;1.67;0.80;;;;;;;;;;10459914;28;20282;-76
2023/01/16 22:03:58;;;;;;;0.80;0.70;;;;;;;;;;10451383;28;20049;-80
2023/01/16 22:08:59;;;;;;;;;;;;;;;;;;10449520;28;20037;-76
2023/01/16 22:19:23;;;;;;;1.58;0.80;;;;;;;;;;10445909;28;20056;-75
2023/01/16 22:24:24;;;;;;;1.25;0.80;;;;;;;;;;10457536;28;20045;-75
2023/01/16 22:29:25;;;;;;;1.77;1.05;;;;;;;;;;10441214;28;20055;-81
2023/01/16 22:34:25;;;;;;;2.08;0.90;;;;;;;;;;10443644;28;20036;-75
2023/01/16 22:39:26;;;;;;;1.65;1.00;;;;;;;;;;10447752;28;20046;-76
2023/01/16 22:49:50;;;;;;;1.58;0.90;;;;;;;;;;10450856;28;20128;-75
2023/01/16 22:54:51;;;;;;;1.75;1.02;;;;;;;;;;10423408;28;20188;-76
2023/01/16 22:59:51;;;;;;;1.38;1.10;;;;;;;;;;10435802;28;20098;-76
2023/01/16 23:04:52;;;;;;;1.38;1.10;;;;;;;;;;10447071;28;20056;-76
2023/01/16 23:09:53;;;;;;;1.10;0.98;;;;;;;;;;10432263;28;20464;-75
2023/01/16 23:14:54;;;;;;;2.08;1.48;;;;;;;;;;10448484;28;20052;-76
2023/01/16 23:19:56;;;;;;;1.58;1.40;;;;;;;;;;10442106;28;20060;-75
2023/01/16 23:24:59;;;;;;;2.50;1.60;;;;;;;;;;10453845;28;20151;-77
2023/01/16 23:30:00;;;;;;;2.17;1.58;;;;;;;;;;10457118;28;20067;-78
2023/01/16 23:35:00;;;;;;;3.97;1.73;;;;;;;;;;10453076;28;20044;-77
2023/01/16 23:40:01;;;;;;;3.20;1.58;;;;;;;;;;10420306;28;20641;-77
2023/01/16 23:45:01;;;;;;;3.15;1.75;;;;;;;;;;10439580;28;20045;-78
2023/01/16 23:50:02;;;;;;;1.85;1.75;;;;;;;;;;10436186;28;20133;-76
2023/01/16 23:55:03;;;;;;;2.30;1.40;;;;;;;;;;10431301;28;20512;-76
